Time;durP1;ratioP1;P1;durP2;ratioP2;P2;SDS_P1;SDS_P2;PMS_P1;PMS_P2;Temp;Humidity;BMP_temperature;BMP_pressure;BME280_temperature;BME280_humidity;BME280_pressure;Samples;Min_cycle;Max_cycle;Signal;HPM_P1;HPM_P2
2022/06/27 00:01:56;;;;;;;1.92;1.83;;;;;;;23.18;49.67;101192.06;5053262;28;20349;-66
2022/06/27 00:04:21;;;;;;;1.90;1.80;;;;;;;23.18;49.63;101199.41;5053626;28;20032;-65
2022/06/27 00:06:46;;;;;;;2.00;1.90;;;;;;;23.17;49.60;101200.50;5053401;28;20021;-65
2022/06/27 00:09:12;;;;;;;1.73;1.63;;;;;;;23.18;49.29;101200.25;5053361;28;20463;-65
2022/06/27 00:11:37;;;;;;;2.25;2.10;;;;;;;23.16;49.37;101199.69;5053265;28;20491;-65
2022/06/27 00:14:03;;;;;;;2.13;2.00;;;;;;;23.17;49.32;101200.50;5053320;28;20032;-65
2022/06/27 00:16:28;;;;;;;2.00;1.90;;;;;;;23.17;49.30;101205.94;5053364;28;20100;-65
2022/06/27 00:18:54;;;;;;;1.85;1.75;;;;;;;23.16;49.29;101210.59;5052226;28;20480;-65
2022/06/27 00:21:19;;;;;;;2.30;2.10;;;;;;;23.17;49.29;101205.94;5053272;28;20379;-65
2022/06/27 00:23:44;;;;;;;2.10;2.00;;;;;;;23.17;49.42;101200.50;5053081;28;20064;-65
2022/06/27 00:26:10;;;;;;;2.00;1.90;;;;;;;23.17;49.14;101200.50;5054290;28;20425;-65
2022/06/27 00:28:35;;;;;;;2.10;2.00;;;;;;;23.16;49.08;101204.28;5053683;28;20360;-65
2022/06/27 00:31:01;;;;;;;1.95;1.85;;;;;;;23.16;49.38;101201.56;5073813;28;20040;-65
2022/06/27 00:33:26;;;;;;;2.10;2.00;;;;;;;23.15;49.20;101208.13;5073134;28;20459;-66
2022/06/27 00:35:53;;;;;;;2.10;2.00;;;;;;;23.16;49.02;101205.13;5072078;28;20082;-65
2022/06/27 00:38:19;;;;;;;1.95;1.85;;;;;;;23.16;49.15;101213.31;5077055;28;20446;-65
2022/06/27 00:40:44;;;;;;;1.88;1.77;;;;;;;23.14;49.16;101209.19;5077245;28;20024;-65
2022/06/27 00:43:09;;;;;;;2.20;2.00;;;;;;;23.13;49.17;101207.50;5077467;28;20025;-65
2022/06/27 00:45:35;;;;;;;2.20;2.00;;;;;;;23.15;49.04;101208.13;5076028;28;20028;-65
2022/06/27 00:48:00;;;;;;;2.00;1.90;;;;;;;23.15;49.01;101210.84;5077102;28;20024;-65
2022/06/27 00:50:26;;;;;;;2.30;2.10;;;;;;;23.14;49.24;101211.91;5076986;28;20020;-65
2022/06/27 00:52:51;;;;;;;2.00;1.90;;;;;;;23.13;49.06;101211.09;5077457;28;20032;-65
2022/06/27 00:55:17;;;;;;;1.95;1.85;;;;;;;23.15;48.89;101219.03;5076556;28;20020;-65
2022/06/27 00:57:43;;;;;;;1.95;1.85;;;;;;;23.15;49.09;101213.56;5076877;28;20025;-65
2022/06/27 01:00:09;;;;;;;2.00;1.90;;;;;;;23.13;48.99;101218.41;5075344;28;20032;-65
2022/06/27 01:02:34;;;;;;;2.10;2.00;;;;;;;23.12;49.07;101209.44;5076524;28;20028;-65
2022/06/27 01:05:00;;;;;;;2.95;2.38;;;;;;;23.13;49.13;101221.16;5076446;28;20021;-65
2022/06/27 01:07:25;;;;;;;1.90;1.80;;;;;;;23.12;48.89;101217.59;5076316;28;20032;-65
2022/06/27 01:09:51;;;;;;;2.00;1.90;;;;;;;23.13;49.05;101221.16;5076255;28;20082;-66
2022/06/27 01:12:16;;;;;;;2.05;1.95;;;;;;;23.14;48.72;101222.81;5074998;28;20017;-65
2022/06/27 01:14:42;;;;;;;2.30;2.10;;;;;;;23.14;48.93;101228.25;5075386;28;20071;-65
2022/06/27 01:17:09;;;;;;;2.10;2.00;;;;;;;23.12;48.77;101224.97;5074944;28;20467;-66
2022/06/27 01:19:35;;;;;;;2.10;2.00;;;;;;;23.12;48.57;101224.97;5075794;28;20025;-65
2022/06/27 01:22:05;;;;;;;2.05;1.95;;;;;;;23.12;48.58;101222.25;5076157;28;20052;-65
2022/06/27 01:24:31;;;;;;;2.50;2.30;;;;;;;23.11;48.61;101229.59;5075985;28;20051;-65
2022/06/27 01:26:56;;;;;;;2.13;2.03;;;;;;;23.11;48.75;101226.88;5076033;28;20024;-66
2022/06/27 01:29:21;;;;;;;2.40;2.20;;;;;;;23.11;48.60;101228.75;5068631;28;20036;-66
2022/06/27 01:31:47;;;;;;;2.45;2.25;;;;;;;23.12;48.59;101230.41;5056081;28;20028;-65
2022/06/27 01:34:13;;;;;;;2.05;1.95;;;;;;;23.12;48.59;101233.16;5056213;28;20374;-66
2022/06/27 01:36:44;;;;;;;2.00;1.90;;;;;;;23.11;48.51;101240.50;5056193;28;20414;-66
2022/06/27 01:39:17;;;;;;;2.00;1.90;;;;;;;23.12;48.57;101233.16;5055762;28;20028;-66
2022/06/27 01:41:53;;;;;;;1.80;1.70;;;;;;;23.11;48.55;101229.59;5056101;28;20029;-65
2022/06/27 01:44:19;;;;;;;1.77;1.67;;;;;;;23.10;48.45;101238.84;5056011;28;20465;-65
2022/06/27 01:46:46;;;;;;;2.22;2.03;;;;;;;23.10;48.50;101243.47;5055424;28;20090;-65
2022/06/27 01:49:12;;;;;;;2.35;2.17;;;;;;;23.11;48.50;101245.97;5055648;28;20049;-66
2022/06/27 01:51:38;;;;;;;2.50;2.30;;;;;;;23.08;48.38;101237.44;5055499;28;20112;-65
2022/06/27 01:54:06;;;;;;;2.25;2.15;;;;;;;23.09;48.23;101241.81;5055803;28;20063;-65
2022/06/27 01:56:31;;;;;;;2.00;1.90;;;;;;;23.09;48.49;101236.38;5055841;28;20032;-65
2022/06/27 01:58:57;;;;;;;2.20;2.10;;;;;;;23.10;48.42;101244.31;5037901;28;20086;-65
2022/06/27 02:01:24;;;;;;;2.30;2.10;;;;;;;23.09;48.31;101239.91;5055376;28;20047;-65
2022/06/27 02:03:50;;;;;;;2.10;2.00;;;;;;;23.09;48.33;101253.53;5055307;28;20043;-65
2022/06/27 02:06:15;;;;;;;2.13;2.03;;;;;;;23.08;48.29;101249.19;5055538;28;20032;-65
2022/06/27 02:08:41;;;;;;;2.30;2.20;;;;;;;23.09;48.52;101241.81;5056135;28;20312;-65
2022/06/27 02:11:07;;;;;;;2.30;2.10;;;;;;;23.08;48.51;101240.16;5055384;28;20060;-65
2022/06/27 02:13:33;;;;;;;2.30;2.20;;;;;;;23.09;48.30;101241.81;5055468;28;20056;-65
2022/06/27 02:16:25;;;;;;;2.10;2.00;;;;;;;23.11;48.73;101245.13;5055445;28;20021;-66
2022/06/27 02:18:50;;;;;;;2.20;2.10;;;;;;;23.09;48.30;101244.53;5053236;28;20041;-65
2022/06/27 02:21:26;;;;;;;2.15;2.05;;;;;;;23.08;48.44;101241.00;5053818;28;20035;-65
2022/06/27 02:23:52;;;;;;;2.25;2.15;;;;;;;23.09;48.23;101247.28;5054993;28;20056;-65
2022/06/27 02:26:20;;;;;;;2.03;1.92;;;;;;;23.09;48.29;101244.53;5055348;28;20044;-65
2022/06/27 02:28:46;;;;;;;1.90;1.80;;;;;;;23.09;48.42;101247.28;5055332;28;20029;-65
2022/06/27 02:31:11;;;;;;;1.98;1.88;;;;;;;23.10;48.31;101246.22;5074964;28;20028;-65
2022/06/27 02:33:38;;;;;;;1.90;1.80;;;;;;;23.08;48.49;101245.59;5074795;28;20123;-65
2022/06/27 02:36:05;;;;;;;2.40;2.20;;;;;;;23.06;48.65;101246.69;5074699;28;20415;-65
2022/06/27 02:38:31;;;;;;;1.98;1.88;;;;;;;23.08;48.35;101237.44;5075006;28;20024;-65
2022/06/27 02:41:02;;;;;;;2.60;2.40;;;;;;;23.07;48.19;101239.34;5074718;28;20437;-65
2022/06/27 02:43:29;;;;;;;2.10;2.00;;;;;;;23.08;48.44;101241.00;5075201;28;20093;-66
2022/06/27 02:45:55;;;;;;;2.25;2.13;;;;;;;23.09;48.60;101245.38;5074539;28;20024;-65
2022/06/27 02:48:20;;;;;;;2.35;2.17;;;;;;;23.08;48.50;101242.88;5074762;28;20024;-65
2022/06/27 02:50:46;;;;;;;2.35;2.15;;;;;;;23.09;48.50;101239.09;5073167;28;20029;-65
2022/06/27 02:53:11;;;;;;;2.13;1.92;;;;;;;23.08;48.80;101246.47;5073196;28;20028;-65
2022/06/27 02:55:41;;;;;;;2.33;2.13;;;;;;;23.07;48.27;101239.34;5056779;28;20032;-65
2022/06/27 02:58:14;;;;;;;2.58;2.38;;;;;;;23.06;48.40;101241.25;5074682;28;20029;-66
2022/06/27 03:00:40;;;;;;;2.58;2.38;;;;;;;23.09;48.58;101241.81;5072547;28;20028;-65
2022/06/27 03:03:06;;;;;;;2.00;1.90;;;;;;;23.08;48.91;101235.56;5074423;28;20020;-65
2022/06/27 03:05:32;;;;;;;2.35;2.22;;;;;;;23.08;48.91;101243.72;5072866;28;20025;-65
2022/06/27 03:07:58;;;;;;;2.20;2.10;;;;;;;23.08;48.70;101242.88;5073966;28;20024;-67
2022/06/27 03:10:23;;;;;;;2.42;2.22;;;;;;;23.08;49.03;101240.16;5073991;28;20036;-67
2022/06/27 03:12:49;;;;;;;2.20;2.10;;;;;;;23.08;48.94;101241.00;5074349;28;20024;-67
2022/06/27 03:15:14;;;;;;;2.30;2.20;;;;;;;23.08;49.01;101246.47;5073930;28;20526;-67
2022/06/27 03:17:40;;;;;;;2.60;2.40;;;;;;;23.09;49.00;101244.53;5074779;28;20031;-67
2022/06/27 03:20:06;;;;;;;2.60;2.40;;;;;;;23.09;49.23;101244.53;5073799;28;20032;-67
2022/06/27 03:22:31;;;;;;;2.38;2.20;;;;;;;23.09;48.94;101242.63;5074063;28;20021;-67
2022/06/27 03:24:56;;;;;;;2.70;2.50;;;;;;;23.09;49.04;101248.09;5072419;28;20435;-67
2022/06/27 03:27:22;;;;;;;2.78;2.58;;;;;;;23.07;49.31;101244.78;5074086;28;20032;-67
2022/06/27 03:29:48;;;;;;;2.60;2.40;;;;;;;23.08;49.35;101248.34;5066298;28;20033;-67
2022/06/27 03:32:13;;;;;;;2.65;2.42;;;;;;;23.09;49.39;101253.53;5054071;28;20371;-68
2022/06/27 03:34:39;;;;;;;2.30;2.20;;;;;;;23.12;49.50;101252.22;5053995;28;20455;-67
2022/06/27 03:37:04;;;;;;;2.40;2.28;;;;;;;23.16;49.29;101258.81;5053995;28;20102;-68
2022/06/27 03:39:29;;;;;;;2.60;2.40;;;;;;;23.17;49.43;101260.50;5053871;28;20025;-67
2022/06/27 03:41:55;;;;;;;2.75;2.55;;;;;;;23.19;49.48;101258.31;5054019;28;20033;-67
2022/06/27 03:44:21;;;;;;;2.58;2.38;;;;;;;23.20;49.30;101254.53;5053422;28;20036;-67
2022/06/27 03:46:47;;;;;;;2.53;2.33;;;;;;;23.19;49.99;101258.31;5053371;28;20020;-67
2022/06/27 03:51:56;;;;;;;;;;;;;;;23.40;49.50;101259.44;5053622;28;20541;-64
2022/06/27 03:54:22;;;;;;;2.83;2.63;;;;;;;23.31;49.88;101250.03;5053540;28;19917;-65
2022/06/27 03:56:47;;;;;;;2.53;2.33;;;;;;;23.31;49.98;101258.22;5053188;28;20330;-66
2022/06/27 03:59:13;;;;;;;2.60;2.38;;;;;;;23.29;49.96;101258.47;5053226;28;20021;-64
2022/06/27 04:01:38;;;;;;;2.67;2.47;;;;;;;23.29;50.09;101242.09;5053219;28;20032;-64
2022/06/27 04:04:04;;;;;;;2.67;2.47;;;;;;;23.30;50.04;101251.09;5053042;28;20032;-64
2022/06/27 04:06:30;;;;;;;2.50;2.30;;;;;;;23.32;50.32;101255.25;5053291;28;20025;-66
2022/06/27 04:08:55;;;;;;;2.63;2.42;;;;;;;23.31;50.54;101256.31;5053550;28;20405;-66
2022/06/27 04:11:20;;;;;;;2.53;2.33;;;;;;;23.33;50.18;101254.16;5053174;28;20417;-65
2022/06/27 04:13:46;;;;;;;2.88;2.50;;;;;;;23.37;50.72;101255.31;5053320;28;20025;-65
2022/06/27 04:16:12;;;;;;;2.92;2.72;;;;;;;23.36;50.11;101252.84;5053769;28;20029;-65
2022/06/27 04:18:37;;;;;;;2.75;2.55;;;;;;;23.36;50.64;101256.38;5053006;28;20486;-65
2022/06/27 04:21:03;;;;;;;2.70;2.50;;;;;;;23.38;50.20;101258.88;5052936;28;20037;-65
2022/06/27 04:23:28;;;;;;;3.60;2.55;;;;;;;23.36;50.76;101255.56;5052987;28;20033;-65
2022/06/27 04:25:53;;;;;;;2.72;2.53;;;;;;;23.38;51.14;101262.41;5053168;28;20083;-65
2022/06/27 04:28:19;;;;;;;3.22;2.67;;;;;;;23.40;50.84;101260.28;5053118;28;20071;-65
2022/06/27 04:30:44;;;;;;;2.85;2.60;;;;;;;23.40;50.74;101251.25;5067423;28;20036;-65
2022/06/27 04:33:10;;;;;;;3.03;2.83;;;;;;;23.39;51.11;101255.88;5073217;28;20035;-65
2022/06/27 04:35:36;;;;;;;2.95;2.75;;;;;;;23.40;51.17;101249.38;5073195;28;20103;-65
2022/06/27 04:38:02;;;;;;;3.65;3.00;;;;;;;23.41;51.43;101250.19;5072695;28;20032;-65
2022/06/27 04:40:27;;;;;;;2.90;2.70;;;;;;;23.41;51.39;101252.91;5072707;28;20025;-65
2022/06/27 04:42:53;;;;;;;2.65;2.45;;;;;;;23.43;51.40;101254.28;5072817;28;20082;-65
2022/06/27 04:45:18;;;;;;;2.63;2.42;;;;;;;23.44;51.66;101245.03;5073099;28;20029;-65
2022/06/27 04:47:44;;;;;;;2.65;2.47;;;;;;;23.46;51.47;101252.97;5073099;28;20455;-65
2022/06/27 04:50:11;;;;;;;3.30;3.00;;;;;;;23.48;51.70;101244.53;5072856;28;20473;-66
2022/06/27 04:52:38;;;;;;;3.10;2.90;;;;;;;23.44;51.87;101236.84;5072637;28;20032;-65
2022/06/27 04:55:07;;;;;;;3.25;2.97;;;;;;;23.49;52.09;101240.72;5073575;28;20032;-65
2022/06/27 04:57:33;;;;;;;2.95;2.75;;;;;;;23.49;51.99;101235.25;5073590;28;20025;-65
2022/06/27 04:59:59;;;;;;;3.10;2.90;;;;;;;23.50;52.19;101239.66;5071839;28;20494;-65
2022/06/27 05:02:24;;;;;;;2.78;2.58;;;;;;;23.53;52.03;101244.59;5073479;28;20029;-65
2022/06/27 05:04:50;;;;;;;3.25;3.05;;;;;;;23.53;51.87;101248.16;5073348;28;20032;-65
2022/06/27 05:07:15;;;;;;;3.22;2.90;;;;;;;23.54;51.72;101246.25;5074005;28;20028;-66
2022/06/27 05:09:41;;;;;;;2.85;2.65;;;;;;;23.59;50.98;101251.75;5073277;28;20024;-65
2022/06/27 05:12:06;;;;;;;3.00;2.80;;;;;;;23.62;51.11;101251.25;5073849;28;20101;-65
2022/06/27 05:14:32;;;;;;;3.05;2.85;;;;;;;23.61;51.53;101245.00;5073276;28;20497;-66
2022/06/27 05:16:58;;;;;;;3.13;2.88;;;;;;;23.65;51.40;101245.31;5072843;28;20028;-66
2022/06/27 05:19:23;;;;;;;2.88;2.67;;;;;;;23.65;51.76;101250.75;5074024;28;20099;-66
2022/06/27 05:21:49;;;;;;;3.40;3.10;;;;;;;23.62;51.73;101245.81;5073578;28;20040;-65
2022/06/27 05:24:15;;;;;;;3.25;3.05;;;;;;;23.63;51.69;101247.47;5076654;28;20041;-65
2022/06/27 05:26:41;;;;;;;3.03;2.83;;;;;;;23.62;51.92;101240.34;5077197;28;20032;-66
2022/06/27 05:29:07;;;;;;;2.83;2.63;;;;;;;23.66;51.45;101248.84;5076228;28;20057;-65
2022/06/27 05:31:32;;;;;;;2.97;2.78;;;;;;;23.68;51.62;101254.88;5056797;28;20028;-66
2022/06/27 05:33:58;;;;;;;2.90;2.70;;;;;;;23.69;51.94;101254.63;5056807;28;20095;-66
2022/06/27 05:36:23;;;;;;;3.40;3.20;;;;;;;23.68;51.44;101254.88;5055139;28;20545;-66
2022/06/27 05:38:49;;;;;;;3.05;2.85;;;;;;;23.71;51.85;101254.38;5056122;28;20399;-66
2022/06/27 05:41:14;;;;;;;2.70;2.50;;;;;;;23.74;51.81;101249.22;5055616;28;20435;-67
2022/06/27 05:43:40;;;;;;;3.38;3.08;;;;;;;23.71;51.86;101260.63;5055411;28;20036;-66
2022/06/27 05:46:06;;;;;;;3.05;2.83;;;;;;;23.75;52.11;101256.34;5056088;28;20067;-66
2022/06/27 05:48:32;;;;;;;2.85;2.65;;;;;;;23.74;52.40;101249.22;5055554;28;20032;-66
2022/06/27 05:50:59;;;;;;;3.05;2.85;;;;;;;23.76;52.53;101247.06;5055287;28;20402;-65
2022/06/27 05:53:28;;;;;;;3.00;2.80;;;;;;;23.80;51.79;101247.38;5055651;28;20021;-66
2022/06/27 05:55:54;;;;;;;2.88;2.67;;;;;;;23.78;52.02;101252.25;5056061;28;20040;-65
2022/06/27 05:58:20;;;;;;;3.05;2.83;;;;;;;23.77;52.21;101251.44;5055020;28;20106;-66
2022/06/27 06:00:45;;;;;;;3.10;2.90;;;;;;;23.82;51.85;101245.25;5053799;28;20060;-66
2022/06/27 06:03:11;;;;;;;2.63;2.42;;;;;;;23.83;52.20;101251.53;5055453;28;20104;-66
2022/06/27 06:05:36;;;;;;;3.00;2.80;;;;;;;23.78;51.99;101250.38;5055303;28;20028;-67
2022/06/27 06:08:03;;;;;;;3.75;2.50;;;;;;;23.87;51.56;101253.50;5055023;28;20021;-65
2022/06/27 06:10:29;;;;;;;2.80;2.60;;;;;;;23.76;52.03;101247.06;5054839;28;20032;-65
2022/06/27 06:12:55;;;;;;;2.67;2.47;;;;;;;23.80;51.61;101247.38;5054852;28;20021;-65
2022/06/27 06:15:20;;;;;;;2.83;2.58;;;;;;;23.78;51.51;101255.84;5054789;28;20510;-66
2022/06/27 06:17:47;;;;;;;2.63;2.42;;;;;;;23.76;51.97;101257.97;5053476;28;20021;-66
2022/06/27 06:20:13;;;;;;;2.97;2.78;;;;;;;23.80;52.38;101252.81;5055304;28;20029;-65
2022/06/27 06:22:40;;;;;;;2.90;2.70;;;;;;;23.85;51.73;101257.56;5054697;28;20021;-64
2022/06/27 06:25:07;;;;;;;2.95;2.63;;;;;;;23.80;51.71;101258.28;5054982;28;20448;-65
2022/06/27 06:27:33;;;;;;;3.17;2.42;;;;;;;23.81;51.72;101263.53;5055241;28;20565;-65
2022/06/27 06:30:02;;;;;;;2.88;2.67;;;;;;;23.79;51.89;101254.75;5060248;28;20047;-65
2022/06/27 06:32:28;;;;;;;2.63;2.42;;;;;;;23.81;51.74;101254.53;5074598;28;20032;-65
2022/06/27 06:34:54;;;;;;;2.72;2.53;;;;;;;23.78;52.01;101249.53;5074420;28;20025;-65
2022/06/27 06:37:19;;;;;;;2.63;2.42;;;;;;;23.81;52.07;101255.34;5074724;28;20031;-65
2022/06/27 06:39:45;;;;;;;3.40;2.60;;;;;;;23.78;52.13;101244.91;5074737;28;20047;-65
2022/06/27 06:42:11;;;;;;;3.17;2.88;;;;;;;23.82;51.64;101245.25;5075053;28;20351;-64
2022/06/27 06:44:36;;;;;;;2.70;2.50;;;;;;;23.92;51.70;101250.00;5074461;28;20024;-63
2022/06/27 06:47:02;;;;;;;3.03;2.60;;;;;;;24.06;51.26;101253.13;5074044;28;20025;-64
2022/06/27 06:49:28;;;;;;;3.13;2.83;;;;;;;24.05;50.83;101249.59;5073924;28;20032;-64
2022/06/27 06:51:53;;;;;;;2.70;2.50;;;;;;;23.79;52.36;101246.56;5072621;28;20039;-66
2022/06/27 06:54:20;;;;;;;3.05;2.83;;;;;;;23.68;52.52;101247.53;5074142;28;20033;-66
2022/06/27 06:56:46;;;;;;;2.80;2.60;;;;;;;23.72;52.11;101251.38;5074313;28;20039;-65
2022/06/27 06:59:11;;;;;;;3.08;2.83;;;;;;;23.75;52.14;101250.88;5072627;28;20028;-65
2022/06/27 07:01:37;;;;;;;3.00;2.80;;;;;;;23.78;52.20;101250.38;5073857;28;20028;-65
2022/06/27 07:04:02;;;;;;;2.70;2.50;;;;;;;23.77;52.38;101256.09;5073703;28;20086;-66
2022/06/27 07:06:29;;;;;;;2.35;2.20;;;;;;;23.77;52.46;101254.19;5073803;28;20024;-65
2022/06/27 07:08:57;;;;;;;2.70;2.50;;;;;;;23.85;52.10;101260.28;5074482;28;20029;-66
2022/06/27 07:11:23;;;;;;;8.63;4.80;;;;;;;23.90;51.84;101254.88;5056121;28;20024;-66
2022/06/27 07:13:51;;;;;;;11.35;5.72;;;;;;;23.98;51.49;101260.72;5074044;28;20104;-66
2022/06/27 07:16:20;;;;;;;4.78;3.50;;;;;;;23.91;51.65;101268.28;5073506;28;20063;-66
2022/06/27 07:18:46;;;;;;;5.07;3.35;;;;;;;23.87;51.91;101264.44;5073520;28;20471;-65
2022/06/27 07:21:21;;;;;;;3.85;3.13;;;;;;;23.92;51.44;101266.38;5073410;28;20029;-65
2022/06/27 07:23:50;;;;;;;3.25;2.95;;;;;;;23.94;51.73;101266.94;5073208;28;20131;-65
2022/06/27 07:26:17;;;;;;;3.05;2.65;;;;;;;23.98;51.38;101270.81;5073281;28;20078;-66
2022/06/27 07:28:42;;;;;;;4.32;2.72;;;;;;;23.98;51.17;101265.34;5073120;28;20487;-65
2022/06/27 07:31:12;;;;;;;3.28;2.50;;;;;;;24.01;50.81;101270.31;5058579;28;20025;-65
2022/06/27 07:33:42;;;;;;;2.92;2.50;;;;;;;24.06;50.87;101261.34;5053184;28;20029;-66
2022/06/27 07:36:14;;;;;;;2.70;2.33;;;;;;;24.06;50.37;101264.91;5053391;28;20526;-65
2022/06/27 07:38:45;;;;;;;4.18;2.53;;;;;;;24.06;50.35;101262.19;5053128;28;20428;-65
2022/06/27 07:41:13;;;;;;;2.50;2.30;;;;;;;24.08;50.41;101260.00;5053381;28;20074;-65
2022/06/27 07:43:39;;;;;;;4.38;2.65;;;;;;;24.10;50.20;101263.31;5053201;28;20159;-65
2022/06/27 07:46:05;;;;;;;2.03;1.92;;;;;;;24.12;49.94;101261.13;5052633;28;20036;-65
2022/06/27 07:48:30;;;;;;;2.50;2.22;;;;;;;24.14;50.00;101263.59;5053329;28;20460;-66
2022/06/27 07:50:56;;;;;;;2.53;2.33;;;;;;;24.16;49.62;101262.28;5053867;28;20073;-66
2022/06/27 07:53:22;;;;;;;2.85;2.40;;;;;;;24.19;49.89;101258.19;5053128;28;20514;-66
2022/06/27 07:55:58;;;;;;;2.35;2.15;;;;;;;24.18;49.50;101265.59;5054164;28;20021;-64
2022/06/27 07:58:32;;;;;;;2.45;2.25;;;;;;;24.21;49.45;101263.41;5053886;28;20036;-65
2022/06/27 08:01:03;;;;;;;2.47;2.28;;;;;;;24.27;49.28;101260.47;5053711;28;20035;-65
2022/06/27 08:03:41;;;;;;;2.53;2.33;;;;;;;24.28;48.94;101264.03;5053712;28;20463;-66
2022/06/27 08:06:23;;;;;;;2.60;2.40;;;;;;;24.31;48.84;101267.06;5052531;28;20051;-65
2022/06/27 08:08:54;;;;;;;2.35;2.15;;;;;;;24.33;48.69;101264.88;5053316;28;20033;-65
2022/06/27 08:11:23;;;;;;;2.75;2.35;;;;;;;24.32;48.89;101276.09;5051667;28;20021;-63
2022/06/27 08:13:50;;;;;;;2.70;2.50;;;;;;;24.32;48.68;101265.19;5052275;28;20104;-65
2022/06/27 08:16:18;;;;;;;2.08;1.98;;;;;;;24.30;48.69;101279.09;5052611;28;20025;-65
2022/06/27 08:18:47;;;;;;;2.15;2.05;;;;;;;24.32;48.85;101271.44;5053665;28;20053;-65
2022/06/27 08:21:14;;;;;;;2.45;2.17;;;;;;;24.28;48.87;101269.47;5052911;28;20064;-65
2022/06/27 08:23:39;;;;;;;2.33;2.13;;;;;;;24.25;48.92;101272.72;5052533;28;20438;-65
2022/06/27 08:26:08;;;;;;;2.70;2.20;;;;;;;24.34;49.13;101273.94;5052793;28;20056;-64
2022/06/27 08:28:37;;;;;;;2.85;2.20;;;;;;;24.35;49.11;101275.56;5052543;28;20043;-65
2022/06/27 08:31:05;;;;;;;2.40;2.20;;;;;;;24.26;49.41;101271.66;5067051;28;20067;-64
2022/06/27 08:33:31;;;;;;;2.05;1.90;;;;;;;24.31;49.34;101275.25;5073754;28;20113;-64
2022/06/27 08:35:58;;;;;;;2.63;2.42;;;;;;;24.34;48.88;101273.94;5073048;28;20467;-65
2022/06/27 08:38:24;;;;;;;2.25;2.05;;;;;;;24.31;49.28;101277.97;5072071;28;20121;-65
2022/06/27 08:40:50;;;;;;;2.47;2.28;;;;;;;24.35;49.27;101275.56;5072984;28;20108;-65
2022/06/27 08:43:17;;;;;;;2.25;2.00;;;;;;;24.35;49.42;101276.41;5071765;28;20411;-65
2022/06/27 08:45:44;;;;;;;2.10;2.00;;;;;;;24.39;49.09;101271.25;5072660;28;20025;-65
2022/06/27 08:48:11;;;;;;;2.22;2.03;;;;;;;24.40;49.10;101270.16;5071026;28;20123;-65
2022/06/27 08:50:37;;;;;;;2.25;2.05;;;;;;;24.37;49.34;101274.22;5072270;28;20036;-65
2022/06/27 08:53:06;;;;;;;2.60;2.40;;;;;;;24.38;49.37;101275.03;5072727;28;20021;-65
2022/06/27 08:55:33;;;;;;;2.50;2.30;;;;;;;24.36;49.27;101271.75;5071420;28;20032;-65
2022/06/27 08:58:04;;;;;;;2.25;2.10;;;;;;;24.39;49.12;101271.25;5074285;28;20062;-65
2022/06/27 09:00:31;;;;;;;2.05;1.95;;;;;;;24.39;48.93;101276.72;5076115;28;20097;-65
2022/06/27 09:02:57;;;;;;;2.20;2.00;;;;;;;24.39;49.06;101279.44;5076254;28;20016;-65
2022/06/27 09:05:26;;;;;;;2.20;2.00;;;;;;;24.43;48.98;101277.81;5076349;28;20023;-65
2022/06/27 09:07:53;;;;;;;2.25;2.08;;;;;;;24.45;48.93;101270.19;5074997;28;20530;-65
2022/06/27 09:10:29;;;;;;;2.33;2.22;;;;;;;24.46;49.09;101271.03;5075841;28;20024;-65
2022/06/27 09:13:08;;;;;;;2.42;2.22;;;;;;;24.49;49.07;101270.50;5076318;28;20368;-65
2022/06/27 09:15:39;;;;;;;2.10;2.00;;;;;;;24.45;49.24;101270.19;5076229;28;20119;-65
2022/06/27 09:18:08;;;;;;;2.47;2.28;;;;;;;24.40;49.48;101267.41;5076095;28;20032;-66
2022/06/27 09:20:52;;;;;;;4.60;1.98;;;;;;;24.50;48.90;101272.16;5076088;28;20031;-65
2022/06/27 09:23:41;;;;;;;2.20;2.00;;;;;;;24.57;48.89;101272.78;5075871;28;20021;-65
2022/06/27 09:26:09;;;;;;;2.10;2.00;;;;;;;24.53;49.33;101267.00;5076012;28;20040;-66
2022/06/27 09:28:42;;;;;;;2.35;2.15;;;;;;;24.44;49.53;101268.56;5075853;28;20459;-65
2022/06/27 09:31:12;;;;;;;2.28;2.08;;;;;;;24.32;49.47;101266.00;5063022;28;20025;-65
2022/06/27 09:33:41;;;;;;;2.30;2.10;;;;;;;24.32;49.64;101263.25;5055484;28;20479;-65
2022/06/27 09:36:14;;;;;;;2.50;2.30;;;;;;;24.30;49.94;101268.16;5055471;28;20481;-65
2022/06/27 09:38:43;;;;;;;2.20;2.00;;;;;;;24.30;49.74;101268.16;5055752;28;20079;-65
2022/06/27 09:41:10;;;;;;;2.03;1.92;;;;;;;24.30;49.86;101267.31;5055503;28;20025;-65
2022/06/27 09:43:39;;;;;;;2.33;2.05;;;;;;;24.31;49.41;101264.31;5055499;28;20033;-65
2022/06/27 09:46:05;;;;;;;2.33;2.13;;;;;;;24.33;49.39;101267.63;5054357;28;20032;-65
2022/06/27 09:48:31;;;;;;;2.42;2.22;;;;;;;24.29;49.47;101258.31;5055595;28;20379;-64
2022/06/27 09:50:57;;;;;;;2.20;2.00;;;;;;;24.38;49.04;101264.13;5054041;28;20028;-65
2022/06/27 09:53:26;;;;;;;2.40;2.20;;;;;;;24.44;48.82;101262.25;5054094;28;20033;-65
2022/06/27 09:55:52;;;;;;;2.40;2.20;;;;;;;24.47;48.92;101261.75;5038293;28;20368;-65
2022/06/27 09:58:17;;;;;;;2.05;1.95;;;;;;;24.51;48.82;101263.69;5055280;28;20083;-64
2022/06/27 10:00:43;;;;;;;2.22;2.03;;;;;;;24.52;48.85;101270.81;5037405;28;20040;-64
2022/06/27 10:03:09;;;;;;;2.45;2.25;;;;;;;24.55;48.48;101262.13;5055203;28;20025;-65
2022/06/27 10:05:34;;;;;;;2.28;2.17;;;;;;;24.60;48.19;101275.00;5055255;28;20060;-65
2022/06/27 10:08:02;;;;;;;2.70;2.03;;;;;;;24.59;48.37;101272.53;5055038;28;20048;-65
2022/06/27 10:10:31;;;;;;;2.20;1.92;;;;;;;24.61;48.22;101268.47;5054133;28;20021;-66
2022/06/27 10:12:57;;;;;;;2.17;1.98;;;;;;;24.62;48.10;101261.09;5054908;28;20434;-65
2022/06/27 10:15:25;;;;;;;2.38;2.17;;;;;;;24.58;48.26;101260.78;5054985;28;20459;-65
2022/06/27 10:17:52;;;;;;;2.08;1.92;;;;;;;24.63;47.99;101260.00;5054969;28;20025;-65
2022/06/27 10:20:20;;;;;;;2.17;2.08;;;;;;;24.65;47.85;101263.31;5053894;28;20037;-65
2022/06/27 10:23:11;;;;;;;2.15;2.05;;;;;;;24.66;47.98;101265.75;5054917;28;20450;-65
2022/06/27 10:25:37;;;;;;;2.10;1.80;;;;;;;24.63;47.68;101265.44;5054588;28;20075;-65
2022/06/27 10:28:12;;;;;;;2.42;2.22;;;;;;;24.67;47.63;101267.41;5054956;28;20021;-65
2022/06/27 10:30:47;;;;;;;1.90;1.80;;;;;;;24.71;47.47;101267.72;5063109;28;20475;-65
2022/06/27 10:33:22;;;;;;;1.70;1.60;;;;;;;24.70;46.95;101264.16;5073642;28;20029;-64
2022/06/27 10:36:13;;;;;;;2.10;1.90;;;;;;;24.70;46.80;101264.16;5074906;28;20028;-65
2022/06/27 10:38:38;;;;;;;2.28;2.08;;;;;;;24.72;46.87;101253.78;5074782;28;20058;-65
2022/06/27 10:41:07;;;;;;;2.35;2.15;;;;;;;24.74;46.56;101257.06;5074126;28;20534;-65
2022/06/27 10:43:36;;;;;;;2.40;2.20;;;;;;;24.73;46.02;101249.13;5073963;28;20481;-66
2022/06/27 10:46:21;;;;;;;3.33;2.10;;;;;;;24.75;46.12;101260.66;5074458;28;20021;-64
2022/06/27 10:48:47;;;;;;;2.50;2.10;;;;;;;24.74;46.19;101254.34;5074216;28;20500;-66
2022/06/27 10:51:19;;;;;;;3.03;1.85;;;;;;;24.76;45.93;101253.28;5073893;28;20028;-64
2022/06/27 10:53:48;;;;;;;2.25;2.05;;;;;;;24.77;45.92;101250.28;5074406;28;20098;-65
2022/06/27 10:56:26;;;;;;;2.08;1.88;;;;;;;24.76;45.99;101259.56;5074305;28;20036;-66
2022/06/27 10:58:51;;;;;;;2.28;2.08;;;;;;;24.77;45.90;101255.75;5074133;28;20024;-64
2022/06/27 11:01:18;;;;;;;4.00;2.20;;;;;;;24.79;45.42;101255.50;5073838;28;20031;-65
2022/06/27 11:03:44;;;;;;;2.00;1.80;;;;;;;24.77;45.76;101250.28;5073809;28;20506;-64
2022/06/27 11:06:13;;;;;;;3.03;2.20;;;;;;;24.82;45.49;101247.59;5074138;28;20056;-64
2022/06/27 11:08:39;;;;;;;1.90;1.80;;;;;;;24.82;45.76;101252.22;5073772;28;20036;-64
2022/06/27 11:11:05;;;;;;;2.10;1.90;;;;;;;24.81;45.48;101253.31;5073751;28;20024;-66
2022/06/27 11:13:52;;;;;;;1.95;1.85;;;;;;;24.83;45.79;101254.69;5073899;28;20024;-65
2022/06/27 11:16:28;;;;;;;2.22;2.00;;;;;;;24.82;45.18;101252.22;5073932;28;20025;-65
2022/06/27 11:19:00;;;;;;;2.20;1.85;;;;;;;24.86;45.31;101259.63;5073800;28;20024;-65
2022/06/27 11:21:27;;;;;;;2.30;2.10;;;;;;;24.86;45.15;101248.69;5072768;28;20052;-65
2022/06/27 11:24:03;;;;;;;2.58;2.20;;;;;;;24.86;45.10;101254.16;5073554;28;20487;-65
2022/06/27 11:26:34;;;;;;;2.28;2.00;;;;;;;24.86;44.69;101248.69;5074240;28;20025;-65
2022/06/27 11:32:08;;;;;;;1.90;1.77;;;;;;;24.92;44.43;101238.63;5055951;28;20040;-65